Time;durP1;ratioP1;P1;durP2;ratioP2;P2;SDS_P1;SDS_P2;PMS_P1;PMS_P2;Temp;Humidity;BMP_temperature;BMP_pressure;BME280_temperature;BME280_humidity;BME280_pressure;Samples;Min_cycle;Max_cycle;Signal;HPM_P1;HPM_P2
2023/03/02 00:00:14;;;;;;;26.40;16.77;;;2.40;99.90;;;;;;4991915;28;20231;-30
2023/03/02 00:02:42;;;;;;;28.93;17.20;;;2.40;99.90;;;;;;4991352;28;20200;-31
2023/03/02 00:05:09;;;;;;;30.03;18.13;;;2.40;99.90;;;;;;4975130;28;20183;-29
2023/03/02 00:07:36;;;;;;;26.80;17.00;;;2.30;99.90;;;;;;4975195;28;20299;-30
2023/03/02 00:10:03;;;;;;;28.77;16.67;;;2.30;99.90;;;;;;4991743;28;20176;-30
2023/03/02 00:12:31;;;;;;;27.67;17.23;;;2.30;99.90;;;;;;4980587;28;20250;-30
2023/03/02 00:14:57;;;;;;;26.73;16.27;;;2.30;99.90;;;;;;4972476;28;20211;-30
2023/03/02 00:17:26;;;;;;;26.40;17.53;;;2.20;99.90;;;;;;4972565;28;20200;-30
2023/03/02 00:20:14;;;;;;;26.77;16.73;;;2.20;99.90;;;;;;4979247;28;20188;-29
2023/03/02 00:22:44;;;;;;;30.53;17.87;;;2.10;99.90;;;;;;4992044;28;20211;-30
2023/03/02 00:25:12;;;;;;;28.33;17.83;;;2.10;99.90;;;;;;4991321;28;20175;-30
2023/03/02 00:27:39;;;;;;;28.30;17.53;;;2.10;99.90;;;;;;4992612;28;20250;-29
2023/03/02 00:30:06;;;;;;;26.00;16.27;;;2.10;99.90;;;;;;4990414;28;20176;-30
2023/03/02 00:32:33;;;;;;;26.53;17.33;;;2.10;99.90;;;;;;4991240;28;20188;-30
2023/03/02 00:34:59;;;;;;;28.60;17.23;;;2.10;99.90;;;;;;4992523;28;20187;-29
2023/03/02 00:37:24;;;;;;;24.93;16.50;;;2.20;99.90;;;;;;4990289;28;20200;-29
2023/03/02 00:39:52;;;;;;;30.03;17.93;;;2.20;99.90;;;;;;4954562;28;20175;-30
2023/03/02 00:42:18;;;;;;;28.07;16.60;;;2.10;99.90;;;;;;4973560;28;20204;-29
2023/03/02 00:44:44;;;;;;;28.50;17.13;;;2.10;99.90;;;;;;4990404;28;20180;-29
2023/03/02 00:47:09;;;;;;;25.60;17.40;;;2.00;99.90;;;;;;4990804;28;20176;-29
2023/03/02 00:49:35;;;;;;;26.90;16.87;;;2.00;99.90;;;;;;4990138;28;20183;-30
2023/03/02 00:52:02;;;;;;;27.23;18.47;;;1.90;99.90;;;;;;4989911;28;20274;-30
2023/03/02 00:54:28;;;;;;;31.57;17.90;;;1.90;99.90;;;;;;4988837;28;20195;-29
2023/03/02 00:56:54;;;;;;;28.63;17.30;;;1.80;99.90;;;;;;4988681;28;20186;-30
2023/03/02 00:59:27;;;;;;;32.87;18.20;;;1.60;99.90;;;;;;4988990;28;20207;-30
2023/03/02 01:02:16;;;;;;;30.93;18.37;;;1.60;99.90;;;;;;4962749;28;20186;-30
2023/03/02 01:04:43;;;;;;;32.20;18.33;;;1.60;99.90;;;;;;4989080;28;20171;-29
2023/03/02 01:07:12;;;;;;;29.63;17.90;;;1.50;99.90;;;;;;4990328;28;20206;-29
2023/03/02 01:09:40;;;;;;;29.23;18.10;;;1.50;99.90;;;;;;4973942;28;20246;-28
2023/03/02 01:12:10;;;;;;;28.83;18.23;;;1.50;99.90;;;;;;4974365;28;20238;-29
2023/03/02 01:14:41;;;;;;;30.37;16.73;;;1.50;99.90;;;;;;4974299;28;20190;-29
2023/03/02 01:17:08;;;;;;;26.73;17.43;;;1.40;99.90;;;;;;4990777;28;20190;-29
2023/03/02 01:19:34;;;;;;;29.73;17.77;;;1.30;99.90;;;;;;4974103;28;20242;-30
2023/03/02 01:22:01;;;;;;;29.27;18.23;;;1.30;99.90;;;;;;4990337;28;20285;-30
2023/03/02 01:24:27;;;;;;;28.40;17.63;;;1.30;99.90;;;;;;4957859;28;20205;-29
2023/03/02 01:26:53;;;;;;;28.37;17.43;;;1.40;99.90;;;;;;4991665;28;20174;-30
2023/03/02 01:29:18;;;;;;;26.87;16.67;;;1.40;99.90;;;;;;4990394;28;20199;-30
2023/03/02 01:31:44;;;;;;;29.63;17.70;;;1.50;99.90;;;;;;4957975;28;20190;-29
2023/03/02 01:34:10;;;;;;;26.90;16.77;;;1.50;99.90;;;;;;4991149;28;20182;-29
2023/03/02 01:36:37;;;;;;;29.13;17.60;;;1.60;99.90;;;;;;4991573;28;20190;-29
2023/03/02 01:39:04;;;;;;;26.77;17.60;;;1.70;99.90;;;;;;4990111;28;20217;-29
2023/03/02 01:41:30;;;;;;;30.50;19.27;;;1.70;99.90;;;;;;4988494;28;20277;-28
2023/03/02 01:43:56;;;;;;;30.50;17.90;;;1.70;99.90;;;;;;4989623;28;20214;-30
2023/03/02 01:46:26;;;;;;;33.13;18.60;;;1.70;99.90;;;;;;4988228;28;20723;-30
2023/03/02 01:49:03;;;;;;;29.13;17.93;;;1.70;99.90;;;;;;4973805;28;20202;-30
2023/03/02 01:51:48;;;;;;;31.03;18.17;;;1.80;99.90;;;;;;4990267;28;20239;-29
2023/03/02 01:54:21;;;;;;;29.13;18.13;;;1.80;99.90;;;;;;4973556;28;20182;-29
2023/03/02 01:56:57;;;;;;;28.87;18.17;;;1.80;99.90;;;;;;4973711;28;20197;-29
2023/03/02 01:59:24;;;;;;;31.53;19.13;;;1.80;99.90;;;;;;4990032;28;20214;-30
2023/03/02 02:01:54;;;;;;;31.23;19.47;;;1.80;99.90;;;;;;4973749;28;20180;-30
2023/03/02 02:04:22;;;;;;;31.43;18.80;;;1.80;99.90;;;;;;4973134;28;20229;-30
2023/03/02 02:07:02;;;;;;;33.23;19.23;;;1.80;99.90;;;;;;4989281;28;20175;-30
2023/03/02 02:09:32;;;;;;;32.60;18.03;;;1.80;99.90;;;;;;4973868;28;20190;-30
2023/03/02 02:11:58;;;;;;;29.57;18.23;;;1.70;99.90;;;;;;4965546;28;20242;-30
2023/03/02 02:14:24;;;;;;;33.70;18.83;;;1.80;99.90;;;;;;4956483;28;20192;-30
2023/03/02 02:16:51;;;;;;;29.17;17.43;;;1.80;99.90;;;;;;4989774;28;20692;-30
2023/03/02 02:19:46;;;;;;;30.90;17.97;;;1.90;99.90;;;;;;4973309;28;20695;-30
2023/03/02 02:22:16;;;;;;;31.03;18.33;;;2.00;99.90;;;;;;4989943;28;20188;-30
2023/03/02 02:24:58;;;;;;;31.37;18.03;;;2.00;99.90;;;;;;4989685;28;20219;-30
2023/03/02 02:27:32;;;;;;;28.30;17.97;;;2.10;99.90;;;;;;4957514;28;20734;-30
2023/03/02 02:29:59;;;;;;;28.40;18.10;;;2.10;99.90;;;;;;4990045;28;20286;-30
2023/03/02 02:32:29;;;;;;;28.63;18.83;;;2.00;99.90;;;;;;4990449;28;20179;-30
2023/03/02 02:35:16;;;;;;;28.10;17.73;;;2.00;99.90;;;;;;4988866;28;20200;-30
2023/03/02 02:38:01;;;;;;;30.13;17.90;;;2.00;99.90;;;;;;4973110;28;20203;-30
2023/03/02 02:40:41;;;;;;;30.07;17.40;;;1.90;99.90;;;;;;4985381;28;20183;-29
2023/03/02 02:43:14;;;;;;;30.23;18.30;;;1.90;99.90;;;;;;4970009;28;20573;-30
2023/03/02 02:45:40;;;;;;;30.87;17.97;;;1.90;99.90;;;;;;4989648;28;20244;-30
2023/03/02 02:48:14;;;;;;;31.47;18.23;;;1.90;99.90;;;;;;4957198;28;20200;-30
2023/03/02 02:50:41;;;;;;;30.27;18.23;;;1.90;99.90;;;;;;4989541;28;20187;-29
2023/03/02 02:53:20;;;;;;;30.20;17.97;;;1.90;99.90;;;;;;4975371;28;20639;-30
2023/03/02 02:55:49;;;;;;;30.57;18.63;;;1.90;99.90;;;;;;4976511;28;20187;-30
2023/03/02 02:58:26;;;;;;;31.97;18.70;;;1.90;99.90;;;;;;4992678;28;20250;-30
2023/03/02 03:00:53;;;;;;;29.27;18.43;;;1.90;99.90;;;;;;4960871;28;20235;-29
2023/03/02 03:03:32;;;;;;;28.93;18.63;;;2.00;99.90;;;;;;4978557;28;20237;-30
2023/03/02 03:06:05;;;;;;;30.70;18.97;;;1.90;99.90;;;;;;4978301;28;20187;-30
2023/03/02 03:08:42;;;;;;;30.90;18.10;;;1.90;99.90;;;;;;4976403;28;20198;-30
2023/03/02 03:11:14;;;;;;;29.37;18.87;;;1.80;99.90;;;;;;4981741;28;20281;-29
2023/03/02 03:13:43;;;;;;;33.67;18.63;;;1.80;99.90;;;;;;4972989;28;20194;-29
2023/03/02 03:16:12;;;;;;;30.93;19.07;;;1.80;99.90;;;;;;4992705;28;20226;-29
2023/03/02 03:18:38;;;;;;;29.97;18.80;;;1.80;99.90;;;;;;4992650;28;20587;-29
2023/03/02 03:21:04;;;;;;;30.90;18.07;;;1.90;99.90;;;;;;4976643;28;20180;-30
2023/03/02 03:23:30;;;;;;;33.20;19.23;;;1.90;99.90;;;;;;4976771;28;20214;-30
2023/03/02 03:25:56;;;;;;;31.27;17.83;;;1.90;99.90;;;;;;4956891;28;20177;-29
2023/03/02 03:28:22;;;;;;;30.07;18.87;;;1.90;99.90;;;;;;4974922;28;20213;-29
2023/03/02 03:30:48;;;;;;;33.23;19.53;;;2.00;99.90;;;;;;4976160;28;20183;-29
2023/03/02 03:33:13;;;;;;;32.90;19.23;;;2.10;99.90;;;;;;4992616;28;20182;-29
2023/03/02 03:35:39;;;;;;;32.80;19.07;;;2.10;99.90;;;;;;4959709;28;20183;-30
2023/03/02 03:38:07;;;;;;;32.27;19.30;;;2.10;99.90;;;;;;4991853;28;20345;-30
2023/03/02 03:40:33;;;;;;;39.53;22.57;;;2.20;99.90;;;;;;4974855;28;20188;-29
2023/03/02 03:43:01;;;;;;;38.47;21.93;;;2.20;99.90;;;;;;4985848;28;20290;-29
2023/03/02 03:45:26;;;;;;;38.60;22.03;;;2.20;99.90;;;;;;4991977;28;20215;-29
2023/03/02 03:47:53;;;;;;;36.90;21.43;;;2.20;99.90;;;;;;4991766;28;20192;-30
2023/03/02 03:50:19;;;;;;;34.20;19.77;;;2.20;99.90;;;;;;4991240;28;20172;-30
2023/03/02 03:52:45;;;;;;;32.10;19.43;;;2.20;99.90;;;;;;4991948;28;20207;-31
2023/03/02 03:55:27;;;;;;;33.10;19.90;;;2.20;99.90;;;;;;4991236;28;20279;-29
2023/03/02 03:57:53;;;;;;;31.17;19.07;;;2.20;99.90;;;;;;4975646;28;20198;-29
2023/03/02 04:00:21;;;;;;;31.50;18.30;;;2.20;99.90;;;;;;4991837;28;20197;-29
2023/03/02 04:02:56;;;;;;;28.50;17.97;;;2.30;99.90;;;;;;4977151;28;20234;-30
2023/03/02 04:05:22;;;;;;;34.93;20.63;;;2.30;99.90;;;;;;4990650;28;20176;-30
2023/03/02 04:07:51;;;;;;;32.97;20.23;;;2.30;99.90;;;;;;4959529;28;20195;-30
2023/03/02 04:10:18;;;;;;;31.73;19.40;;;2.30;99.90;;;;;;4988276;28;20238;-30
2023/03/02 04:12:45;;;;;;;34.20;20.17;;;2.30;99.90;;;;;;4970630;28;20190;-30
2023/03/02 04:15:15;;;;;;;32.73;19.50;;;2.30;99.90;;;;;;4973760;28;20183;-30
2023/03/02 04:17:43;;;;;;;34.57;17.97;;;2.30;99.90;;;;;;4991838;28;20211;-30
2023/03/02 04:20:15;;;;;;;28.20;17.83;;;2.20;99.90;;;;;;4990885;28;20238;-30
2023/03/02 04:22:44;;;;;;;31.50;19.00;;;2.10;99.90;;;;;;4991659;28;20270;-30
2023/03/02 04:25:11;;;;;;;33.37;18.93;;;2.00;99.90;;;;;;4974815;28;20322;-30
2023/03/02 04:27:38;;;;;;;30.47;18.13;;;2.10;99.90;;;;;;4991487;28;20203;-30
2023/03/02 04:30:07;;;;;;;34.63;19.50;;;2.10;99.90;;;;;;4991763;28;20250;-30
2023/03/02 04:32:33;;;;;;;34.63;19.43;;;2.00;99.90;;;;;;4946139;28;20191;-30
2023/03/02 04:34:59;;;;;;;35.53;19.40;;;2.00;99.90;;;;;;4979713;28;20215;-30
2023/03/02 04:37:26;;;;;;;29.70;18.27;;;2.10;99.90;;;;;;4990108;28;20199;-31
2023/03/02 04:39:52;;;;;;;33.03;19.70;;;2.00;99.90;;;;;;4985163;28;20194;-31
2023/03/02 04:42:19;;;;;;;34.10;19.20;;;2.00;99.90;;;;;;4974164;28;20268;-30
2023/03/02 04:44:46;;;;;;;34.03;19.23;;;2.00;99.90;;;;;;4981796;28;20434;-31
2023/03/02 04:47:12;;;;;;;30.50;19.20;;;2.00;99.90;;;;;;4990373;28;20249;-30
2023/03/02 04:49:39;;;;;;;31.70;19.17;;;2.00;99.90;;;;;;4990397;28;20201;-29
2023/03/02 04:52:06;;;;;;;33.73;18.73;;;1.90;99.90;;;;;;4974617;28;20237;-30
2023/03/02 04:54:33;;;;;;;34.33;19.53;;;1.80;99.90;;;;;;4974064;28;20598;-30
2023/03/02 04:56:59;;;;;;;32.63;19.63;;;1.80;99.90;;;;;;4989580;28;20233;-31
2023/03/02 04:59:27;;;;;;;33.03;19.17;;;1.80;99.90;;;;;;4987847;28;20183;-31
2023/03/02 05:01:55;;;;;;;32.80;19.50;;;1.70;99.90;;;;;;4992056;28;20560;-29
2023/03/02 05:04:21;;;;;;;30.87;18.30;;;1.80;99.90;;;;;;4990591;28;20207;-29
2023/03/02 05:06:47;;;;;;;33.03;20.10;;;1.90;99.90;;;;;;4990595;28;20186;-30
2023/03/02 05:09:13;;;;;;;32.03;19.13;;;1.90;99.90;;;;;;4988866;28;20214;-29
2023/03/02 05:11:39;;;;;;;33.13;19.23;;;1.90;99.90;;;;;;4973946;28;20603;-30
2023/03/02 05:14:07;;;;;;;33.17;18.43;;;1.90;99.90;;;;;;4990671;28;20218;-30
2023/03/02 05:16:35;;;;;;;31.37;19.43;;;1.90;99.90;;;;;;4974417;28;20246;-30
2023/03/02 05:19:03;;;;;;;31.17;19.20;;;2.00;99.90;;;;;;4974360;28;20207;-30
2023/03/02 05:21:29;;;;;;;31.90;18.87;;;2.10;99.90;;;;;;4990857;28;20282;-29
2023/03/02 05:23:55;;;;;;;33.90;19.07;;;2.10;99.90;;;;;;4989708;28;20302;-30
2023/03/02 05:28:56;;;;;;;33.90;19.57;;;2.20;99.90;;;;;;5028813;28;20219;-39
2023/03/02 05:31:33;;;;;;;36.20;19.53;;;2.20;99.90;;;;;;5031089;28;20179;-44
2023/03/02 05:34:00;;;;;;;32.13;19.13;;;2.20;99.90;;;;;;5030022;28;20185;-40
2023/03/02 05:36:26;;;;;;;31.83;18.90;;;2.20;99.90;;;;;;5013377;28;20237;-45
2023/03/02 05:38:52;;;;;;;34.23;18.27;;;2.20;99.90;;;;;;5030808;28;20209;-40
2023/03/02 05:41:18;;;;;;;29.17;18.70;;;2.20;99.90;;;;;;5013051;28;20212;-41
2023/03/02 05:43:44;;;;;;;33.93;19.50;;;2.30;99.90;;;;;;5013273;28;20208;-41
2023/03/02 05:46:09;;;;;;;30.80;18.27;;;2.30;99.90;;;;;;5030862;28;20256;-40
2023/03/02 05:48:35;;;;;;;33.77;20.00;;;2.30;99.90;;;;;;5032165;28;20178;-39
2023/03/02 05:51:01;;;;;;;33.97;19.53;;;2.30;99.90;;;;;;5030167;28;20178;-40
2023/03/02 05:53:27;;;;;;;35.50;19.40;;;2.30;99.90;;;;;;5023749;28;20273;-42
2023/03/02 05:55:53;;;;;;;34.03;20.00;;;2.40;99.90;;;;;;5012392;28;20209;-43
2023/03/02 05:58:20;;;;;;;31.80;19.73;;;2.40;99.90;;;;;;5013344;28;20192;-41
2023/03/02 06:00:49;;;;;;;35.07;19.40;;;2.40;99.90;;;;;;5012499;28;20189;-40
2023/03/02 06:03:16;;;;;;;31.40;18.53;;;2.30;99.90;;;;;;4995866;28;20205;-41
2023/03/02 06:05:41;;;;;;;32.80;19.57;;;2.30;99.90;;;;;;5030974;28;20693;-45
2023/03/02 06:08:07;;;;;;;31.93;20.03;;;2.30;99.90;;;;;;5018675;28;20178;-39
2023/03/02 06:10:34;;;;;;;29.97;19.17;;;2.10;99.90;;;;;;5030038;28;20186;-43
2023/03/02 06:13:00;;;;;;;31.77;19.30;;;2.10;99.90;;;;;;5012595;28;20284;-41
2023/03/02 06:15:29;;;;;;;32.70;19.23;;;2.20;99.90;;;;;;5014231;28;20272;-40
2023/03/02 06:17:58;;;;;;;36.63;19.60;;;2.20;99.90;;;;;;5011190;28;20183;-40
2023/03/02 06:20:23;;;;;;;29.97;18.83;;;2.20;99.90;;;;;;5028364;28;20260;-42
2023/03/02 06:22:49;;;;;;;32.87;19.40;;;2.20;99.90;;;;;;5021292;28;20205;-44
2023/03/02 06:25:24;;;;;;;32.30;19.13;;;2.20;99.90;;;;;;5013032;28;20256;-41
2023/03/02 06:27:52;;;;;;;33.83;19.07;;;2.20;99.90;;;;;;5025061;28;20194;-43
2023/03/02 06:30:21;;;;;;;33.17;18.33;;;2.20;99.90;;;;;;5016855;28;20174;-40
2023/03/02 06:32:49;;;;;;;31.80;19.53;;;2.20;99.90;;;;;;4999552;28;20178;-41
2023/03/02 06:35:16;;;;;;;31.47;19.40;;;2.20;99.90;;;;;;4980804;28;20192;-40
2023/03/02 06:37:42;;;;;;;29.83;18.03;;;2.10;99.90;;;;;;5028203;28;20201;-41
2023/03/02 06:40:12;;;;;;;30.57;19.37;;;2.10;99.90;;;;;;5020633;28;20220;-41
2023/03/02 06:42:40;;;;;;;34.73;19.87;;;2.10;99.90;;;;;;4999440;28;20185;-39
2023/03/02 06:45:07;;;;;;;36.23;20.40;;;2.10;99.90;;;;;;5000060;28;20186;-40
2023/03/02 06:47:33;;;;;;;32.77;19.80;;;2.00;99.90;;;;;;4999927;28;20216;-40
2023/03/02 06:49:59;;;;;;;37.03;20.50;;;2.10;99.90;;;;;;5034044;28;20190;-39
2023/03/02 06:52:26;;;;;;;33.57;20.27;;;2.10;99.90;;;;;;5000022;28;20190;-41
2023/03/02 06:54:52;;;;;;;35.37;20.60;;;2.10;99.90;;;;;;5013569;28;20198;-40
2023/03/02 06:57:18;;;;;;;34.83;20.43;;;2.00;99.90;;;;;;5032950;28;20308;-39
2023/03/02 06:59:44;;;;;;;32.07;19.87;;;2.00;99.90;;;;;;5032943;28;20241;-39
2023/03/02 07:02:10;;;;;;;35.90;19.80;;;1.90;99.90;;;;;;5009205;28;20198;-39
2023/03/02 07:04:36;;;;;;;35.73;20.13;;;2.00;99.90;;;;;;5016165;28;20218;-42
2023/03/02 07:07:02;;;;;;;36.60;20.13;;;2.00;99.90;;;;;;5033789;28;20201;-42
2023/03/02 07:09:29;;;;;;;33.90;20.47;;;2.10;99.90;;;;;;5031222;28;20189;-41
2023/03/02 07:11:56;;;;;;;34.60;19.43;;;2.10;99.90;;;;;;5016852;28;20185;-39
2023/03/02 07:14:24;;;;;;;31.97;18.77;;;2.10;99.90;;;;;;5033740;28;20196;-41
2023/03/02 07:16:49;;;;;;;32.53;18.77;;;2.10;99.90;;;;;;5032500;28;20194;-39
2023/03/02 07:19:15;;;;;;;34.37;19.63;;;2.20;99.90;;;;;;5034007;28;20606;-40
2023/03/02 07:21:41;;;;;;;31.10;17.93;;;2.20;99.90;;;;;;5032393;28;20194;-39
2023/03/02 07:24:07;;;;;;;33.53;18.97;;;2.20;99.90;;;;;;5032495;28;20219;-39
2023/03/02 07:26:33;;;;;;;32.77;19.77;;;2.30;99.90;;;;;;5033622;28;20198;-41
2023/03/02 07:29:00;;;;;;;31.80;20.00;;;2.30;99.90;;;;;;5033269;28;20190;-40
2023/03/02 07:31:29;;;;;;;30.47;18.37;;;2.20;99.90;;;;;;5033753;28;20178;-39
2023/03/02 07:33:55;;;;;;;31.57;19.17;;;2.30;99.90;;;;;;5031807;28;20189;-40
2023/03/02 07:36:21;;;;;;;34.30;19.30;;;2.30;99.90;;;;;;5032145;28;20193;-39
2023/03/02 07:38:47;;;;;;;36.17;19.83;;;2.30;99.90;;;;;;5031297;28;20181;-40
2023/03/02 07:41:15;;;;;;;30.97;19.30;;;2.30;99.90;;;;;;5032729;28;20182;-40
2023/03/02 07:43:42;;;;;;;30.73;19.33;;;2.30;99.90;;;;;;4998730;28;20256;-39
2023/03/02 07:46:09;;;;;;;33.43;20.57;;;2.40;99.90;;;;;;5015430;28;20201;-40
2023/03/02 07:48:35;;;;;;;31.10;18.93;;;2.40;99.90;;;;;;5015490;28;20193;-41
2023/03/02 07:51:02;;;;;;;29.80;18.00;;;2.40;99.90;;;;;;5015450;28;20175;-40
2023/03/02 07:53:28;;;;;;;31.03;18.53;;;2.50;99.90;;;;;;4999007;28;20229;-38
2023/03/02 07:55:54;;;;;;;28.23;18.10;;;2.60;99.90;;;;;;5015311;28;20293;-39
2023/03/02 07:58:20;;;;;;;33.90;20.53;;;2.60;99.90;;;;;;4998610;28;20187;-40
2023/03/02 08:00:46;;;;;;;32.63;18.70;;;2.80;99.90;;;;;;4998799;28;20184;-41
2023/03/02 08:03:12;;;;;;;30.33;18.60;;;2.80;99.90;;;;;;5015029;28;20217;-39
2023/03/02 08:05:37;;;;;;;29.07;18.77;;;2.90;99.90;;;;;;5015060;28;20227;-39
2023/03/02 08:08:03;;;;;;;32.40;19.10;;;2.90;99.90;;;;;;5032782;28;20216;-40
2023/03/02 08:10:29;;;;;;;33.90;18.50;;;2.90;99.90;;;;;;4998309;28;20175;-43
2023/03/02 08:12:55;;;;;;;32.67;17.87;;;3.00;99.90;;;;;;5032919;28;20213;-40
2023/03/02 08:15:22;;;;;;;30.83;18.53;;;3.00;99.90;;;;;;4998977;28;20207;-41
2023/03/02 08:17:48;;;;;;;28.63;17.33;;;3.00;99.90;;;;;;5015103;28;20182;-39
2023/03/02 08:20:15;;;;;;;31.33;18.90;;;3.10;99.90;;;;;;4998531;28;20178;-42
2023/03/02 08:22:42;;;;;;;25.93;16.97;;;3.20;99.90;;;;;;5014938;28;20197;-42
2023/03/02 08:25:09;;;;;;;30.33;17.40;;;3.30;99.90;;;;;;5032227;28;20183;-40
2023/03/02 08:27:39;;;;;;;28.93;17.60;;;3.30;99.90;;;;;;4998350;28;20190;-39
2023/03/02 08:30:06;;;;;;;30.43;17.77;;;3.40;99.90;;;;;;5032496;28;20174;-40
2023/03/02 08:32:33;;;;;;;33.67;19.27;;;3.50;99.90;;;;;;5014697;28;20187;-40
2023/03/02 08:35:00;;;;;;;29.57;17.93;;;3.50;99.90;;;;;;5014271;28;20185;-39
2023/03/02 08:37:27;;;;;;;34.60;18.77;;;3.50;99.90;;;;;;4998068;28;20204;-43
2023/03/02 08:39:53;;;;;;;29.80;18.27;;;3.50;99.90;;;;;;4997814;28;20244;-39
2023/03/02 08:42:19;;;;;;;30.23;17.67;;;3.50;99.90;;;;;;5014530;28;20362;-39
2023/03/02 08:44:48;;;;;;;29.37;17.27;;;3.50;99.90;;;;;;5014355;28;20225;-39
2023/03/02 08:47:13;;;;;;;28.60;16.40;;;3.50;99.90;;;;;;4998040;28;20232;-41
2023/03/02 08:49:39;;;;;;;29.43;17.70;;;3.60;99.90;;;;;;5012839;28;20630;-39
2023/03/02 08:52:05;;;;;;;30.27;17.43;;;3.70;99.90;;;;;;5013708;28;20207;-40
2023/03/02 08:54:33;;;;;;;32.03;18.10;;;3.70;99.90;;;;;;5031881;28;20178;-40
2023/03/02 08:57:00;;;;;;;26.80;16.93;;;3.80;99.90;;;;;;5031833;28;20203;-40
2023/03/02 08:59:26;;;;;;;31.70;18.23;;;3.90;99.90;;;;;;5014022;28;20178;-39
2023/03/02 09:01:52;;;;;;;28.33;17.70;;;4.00;99.90;;;;;;5013907;28;20256;-39
2023/03/02 09:04:19;;;;;;;29.93;18.07;;;4.00;99.90;;;;;;4996655;28;20218;-41
2023/03/02 09:06:46;;;;;;;30.80;17.70;;;4.00;99.90;;;;;;5012591;28;20290;-41
2023/03/02 09:09:13;;;;;;;27.43;17.23;;;3.90;99.90;;;;;;4997587;28;20190;-40
2023/03/02 09:11:41;;;;;;;28.73;17.47;;;4.00;99.90;;;;;;5013930;28;20181;-40
2023/03/02 09:14:07;;;;;;;27.13;17.07;;;4.10;99.90;;;;;;5013971;28;20187;-40
2023/03/02 09:16:33;;;;;;;28.47;17.73;;;4.10;99.90;;;;;;5013974;28;20205;-41
2023/03/02 09:18:58;;;;;;;28.37;17.93;;;4.10;99.90;;;;;;4997717;28;20175;-40
2023/03/02 09:21:25;;;;;;;32.60;18.07;;;4.10;99.90;;;;;;5014015;28;20190;-41
2023/03/02 09:23:56;;;;;;;27.63;18.23;;;4.20;99.90;;;;;;5013315;28;20248;-40
2023/03/02 09:26:23;;;;;;;28.23;17.67;;;4.30;99.90;;;;;;5031448;28;20218;-40
2023/03/02 09:28:49;;;;;;;27.43;17.13;;;4.30;99.90;;;;;;4997348;28;20197;-40
2023/03/02 09:31:16;;;;;;;26.13;17.40;;;4.40;99.90;;;;;;5013717;28;20178;-40
2023/03/02 09:33:42;;;;;;;29.90;18.87;;;4.40;99.90;;;;;;5013698;28;20313;-40
2023/03/02 09:36:10;;;;;;;26.53;16.67;;;4.50;99.90;;;;;;4997042;28;20297;-40
2023/03/02 09:38:36;;;;;;;28.93;17.00;;;4.50;99.90;;;;;;4997482;28;20193;-40
2023/03/02 09:41:12;;;;;;;28.00;17.70;;;4.60;99.90;;;;;;5025889;28;20182;-40
2023/03/02 09:44:04;;;;;;;27.83;17.97;;;4.60;99.90;;;;;;4994216;28;20207;-45
2023/03/02 09:46:45;;;;;;;28.47;17.10;;;4.70;99.90;;;;;;5010448;28;20199;-43
2023/03/02 09:49:25;;;;;;;29.57;17.53;;;4.80;99.90;;;;;;5010138;28;20278;-45
2023/03/02 09:52:06;;;;;;;26.37;16.77;;;4.80;99.90;;;;;;5011619;28;20176;-43
2023/03/02 09:54:34;;;;;;;29.57;18.00;;;4.80;99.90;;;;;;5010149;28;20187;-42
2023/03/02 09:57:01;;;;;;;29.73;17.87;;;4.80;99.90;;;;;;5009905;28;20214;-40
2023/03/02 09:59:46;;;;;;;29.40;17.83;;;4.80;99.90;;;;;;4993839;28;20214;-43
2023/03/02 10:02:27;;;;;;;27.43;17.30;;;4.90;99.90;;;;;;5013531;28;20566;-43
2023/03/02 10:04:55;;;;;;;28.83;18.77;;;4.90;99.90;;;;;;5014002;28;20276;-41
2023/03/02 10:07:27;;;;;;;27.43;17.27;;;4.90;99.90;;;;;;5013649;28;20238;-41
2023/03/02 10:09:57;;;;;;;29.13;17.90;;;5.00;99.90;;;;;;5024615;28;20186;-39
2023/03/02 10:12:29;;;;;;;27.17;18.43;;;4.90;99.90;;;;;;5017194;28;20183;-43
2023/03/02 10:15:02;;;;;;;29.67;17.37;;;5.00;99.90;;;;;;5034695;28;20191;-42
2023/03/02 10:17:50;;;;;;;29.73;18.03;;;5.00;99.90;;;;;;5017576;28;20188;-42
2023/03/02 10:20:27;;;;;;;27.87;17.87;;;5.10;99.90;;;;;;5034399;28;20585;-42
2023/03/02 10:23:14;;;;;;;29.93;17.30;;;5.20;99.90;;;;;;5017133;28;20206;-41
2023/03/02 10:25:49;;;;;;;30.57;17.33;;;5.30;99.90;;;;;;5016910;28;20217;-46
2023/03/02 10:28:21;;;;;;;28.50;17.97;;;5.40;99.90;;;;;;5000453;28;20559;-41
2023/03/02 10:31:00;;;;;;;31.23;18.67;;;5.40;99.90;;;;;;5017020;28;20218;-42
2023/03/02 10:33:27;;;;;;;31.27;18.80;;;5.20;99.90;;;;;;5000793;28;20186;-39
2023/03/02 10:35:53;;;;;;;27.67;18.10;;;5.20;99.90;;;;;;5000698;28;20202;-43
2023/03/02 10:38:23;;;;;;;29.87;18.77;;;5.30;99.90;;;;;;5016945;28;20233;-43
2023/03/02 10:40:58;;;;;;;30.83;19.43;;;5.40;99.90;;;;;;4997081;28;20183;-43
2023/03/02 10:43:32;;;;;;;26.03;17.70;;;5.30;99.90;;;;;;5030755;28;20214;-44
2023/03/02 10:46:08;;;;;;;29.47;18.80;;;5.30;99.90;;;;;;5016202;28;20208;-43
2023/03/02 10:48:53;;;;;;;31.67;18.33;;;5.40;99.90;;;;;;5016261;28;20185;-45
2023/03/02 10:51:29;;;;;;;28.50;17.80;;;5.10;99.90;;;;;;5034406;28;20183;-40
2023/03/02 10:54:05;;;;;;;28.67;18.10;;;5.10;99.90;;;;;;5016702;28;20174;-43
2023/03/02 10:56:33;;;;;;;29.17;18.33;;;5.20;99.90;;;;;;5016653;28;20206;-41
2023/03/02 10:59:02;;;;;;;33.27;19.00;;;5.20;99.90;;;;;;5016383;28;20179;-43
2023/03/02 11:01:29;;;;;;;31.27;18.40;;;5.20;99.90;;;;;;5033957;28;20180;-41
2023/03/02 11:03:57;;;;;;;29.70;18.30;;;5.10;99.90;;;;;;5016524;28;20202;-44
2023/03/02 11:06:24;;;;;;;28.67;18.53;;;5.20;99.90;;;;;;5016396;28;20211;-42
2023/03/02 11:08:59;;;;;;;34.27;19.53;;;5.30;99.90;;;;;;5015928;28;20183;-41
2023/03/02 11:11:25;;;;;;;34.37;18.80;;;5.20;99.90;;;;;;5014208;28;20177;-40
2023/03/02 11:13:51;;;;;;;31.37;18.47;;;5.20;99.90;;;;;;5015024;28;20182;-39
2023/03/02 11:16:16;;;;;;;29.23;18.57;;;5.30;99.90;;;;;;4999667;28;20230;-42
2023/03/02 11:18:45;;;;;;;28.80;17.93;;;5.30;99.90;;;;;;5033746;28;20177;-41
2023/03/02 11:21:17;;;;;;;31.67;18.73;;;5.30;99.90;;;;;;5016050;28;20248;-40
2023/03/02 11:24:20;;;;;;;26.43;17.87;;;5.40;99.90;;;;;;5015778;28;20204;-40
2023/03/02 11:26:53;;;;;;;27.73;17.33;;;5.50;99.90;;;;;;4983024;28;20237;-38
2023/03/02 11:29:34;;;;;;;32.40;19.73;;;5.50;99.90;;;;;;5015684;28;20203;-40
2023/03/02 11:32:14;;;;;;;28.57;18.30;;;5.60;99.90;;;;;;4998959;28;20191;-39
2023/03/02 11:34:55;;;;;;;33.97;19.00;;;5.50;99.90;;;;;;5033881;28;20172;-38
2023/03/02 11:37:48;;;;;;;30.07;18.57;;;5.50;99.90;;;;;;5015306;28;20196;-41
2023/03/02 11:40:31;;;;;;;29.57;18.87;;;5.50;99.90;;;;;;5033233;28;20640;-38
2023/03/02 11:42:59;;;;;;;27.00;18.27;;;5.60;99.90;;;;;;5015285;28;20210;-40
2023/03/02 11:45:37;;;;;;;31.60;18.33;;;5.70;99.90;;;;;;5015500;28;20184;-40
2023/03/02 11:48:08;;;;;;;27.60;17.37;;;5.70;99.90;;;;;;4999317;28;20251;-39
2023/03/02 11:50:56;;;;;;;31.43;18.60;;;5.80;99.90;;;;;;5015489;28;20271;-38
2023/03/02 11:53:28;;;;;;;30.87;18.50;;;5.80;99.90;;;;;;4999134;28;20185;-40
2023/03/02 11:55:54;;;;;;;29.73;18.00;;;5.90;99.90;;;;;;5033702;28;20208;-40
2023/03/02 11:58:29;;;;;;;31.40;18.40;;;5.90;99.90;;;;;;5038159;28;20175;-39
2023/03/02 12:01:22;;;;;;;29.50;17.83;;;6.00;99.90;;;;;;5058789;28;20199;-37
2023/03/02 12:03:53;;;;;;;27.07;17.53;;;6.00;99.90;;;;;;5034296;28;20235;-38
2023/03/02 12:06:35;;;;;;;28.80;17.77;;;6.10;99.90;;;;;;5035631;28;20203;-38
2023/03/02 12:09:35;;;;;;;28.10;17.10;;;6.20;99.90;;;;;;5042464;28;20255;-38
2023/03/02 12:12:43;;;;;;;29.20;17.70;;;6.30;99.90;;;;;;5028864;28;20193;-38
2023/03/02 12:15:40;;;;;;;24.13;16.53;;;6.40;99.90;;;;;;5039241;28;20166;-39
2023/03/02 12:18:15;;;;;;;26.87;17.17;;;6.40;99.90;;;;;;4999031;28;20268;-38
2023/03/02 12:20:45;;;;;;;27.83;16.83;;;6.30;99.90;;;;;;5004365;28;20180;-42
2023/03/02 12:23:43;;;;;;;30.23;18.03;;;6.30;99.90;;;;;;5031992;28;20227;-38
2023/03/02 12:26:31;;;;;;;29.77;17.77;;;6.30;99.90;;;;;;5025447;28;20300;-36
2023/03/02 12:29:09;;;;;;;26.70;16.53;;;6.30;99.90;;;;;;5006291;28;20196;-40
2023/03/02 12:31:42;;;;;;;29.47;18.07;;;6.30;99.90;;;;;;5028223;28;20184;-38
2023/03/02 12:34:23;;;;;;;29.20;18.20;;;6.20;99.90;;;;;;5012829;28;20182;-39
2023/03/02 12:36:55;;;;;;;29.17;17.13;;;6.20;99.90;;;;;;5015116;28;20696;-42
2023/03/02 12:39:37;;;;;;;27.83;17.43;;;6.30;99.90;;;;;;5032400;28;20250;-38
2023/03/02 12:42:42;;;;;;;30.27;18.83;;;6.40;99.90;;;;;;5014153;28;20177;-40
2023/03/02 12:45:31;;;;;;;28.57;17.87;;;6.50;99.90;;;;;;4977362;28;20202;-39
2023/03/02 12:48:32;;;;;;;27.30;18.20;;;6.50;99.90;;;;;;5014795;28;20277;-40
2023/03/02 12:51:01;;;;;;;27.03;17.80;;;6.40;99.90;;;;;;5027019;28;20659;-40
2023/03/02 12:53:28;;;;;;;26.97;17.93;;;6.40;99.90;;;;;;5014546;28;20222;-41